createdAt,value
2019-04-21T00:00:16.740Z,42.00
2019-04-21T00:02:46.035Z,42.43
2019-04-21T00:05:30.785Z,42.26
2019-04-21T00:08:15.068Z,42.09
2019-04-21T00:10:44.632Z,42.59
2019-04-21T00:12:56.099Z,43.21
2019-04-21T00:15:24.367Z,42.18
2019-04-21T00:17:52.752Z,42.17
2019-04-21T00:20:28.370Z,42.83
2019-04-21T00:23:05.918Z,43.02
2019-04-21T00:25:33.695Z,43.22
2019-04-21T00:28:09.311Z,43.33
2019-04-21T00:30:39.889Z,43.09
2019-04-21T00:32:59.723Z,43.67
2019-04-21T00:35:25.822Z,44.26
2019-04-21T00:38:15.435Z,44.10
2019-04-21T00:40:41.432Z,44.24
2019-04-21T00:43:12.241Z,45.48
2019-04-21T00:45:33.748Z,45.46
2019-04-21T00:48:21.869Z,43.48
2019-04-21T00:51:05.381Z,44.17
2019-04-21T00:53:29.621Z,43.97
2019-04-21T00:55:59.111Z,45.10
2019-04-21T00:58:29.875Z,43.92
2019-04-21T01:00:51.111Z,44.23
2019-04-21T01:03:26.684Z,44.07
2019-04-21T01:06:10.030Z,45.19
2019-04-21T01:08:30.281Z,43.82
2019-04-21T01:10:49.239Z,44.67
2019-04-21T01:13:29.409Z,45.05
2019-04-21T01:16:14.515Z,44.60
2019-04-21T01:18:29.609Z,45.31
2019-04-21T01:20:34.515Z,44.98
2019-04-21T01:23:04.251Z,45.26
2019-04-21T01:25:39.129Z,45.21
2019-04-21T01:28:23.259Z,45.88
2019-04-21T01:30:55.375Z,46.90
2019-04-21T01:33:26.026Z,44.88
2019-04-21T01:35:54.894Z,44.83
2019-04-21T01:38:31.725Z,45.05
2019-04-21T01:41:00.643Z,45.61
2019-04-21T01:43:23.400Z,45.77
2019-04-21T01:45:56.699Z,45.27
2019-04-21T01:48:19.694Z,46.09
2019-04-21T01:50:56.795Z,45.36
2019-04-21T01:53:39.534Z,49.57
2019-04-21T01:56:25.987Z,49.46
2019-04-21T01:58:43.090Z,46.91
2019-04-21T02:01:26.254Z,46.55
2019-04-21T02:04:09.242Z,45.72
2019-04-21T02:06:27.528Z,46.44
2019-04-21T02:08:53.186Z,46.72
2019-04-21T02:11:30.987Z,47.07
2019-04-21T02:14:05.916Z,46.53
2019-04-21T02:16:28.139Z,46.96
2019-04-21T02:18:56.888Z,46.27
2019-04-21T02:21:22.158Z,46.68
2019-04-21T02:24:07.130Z,47.51
2019-04-21T02:26:28.640Z,48.31
2019-04-21T02:29:00.196Z,54.63
2019-04-21T02:31:57.102Z,50.21
2019-04-21T02:34:11.366Z,49.51
2019-04-21T02:37:00.896Z,48.69
2019-04-21T02:39:15.685Z,49.14
2019-04-21T02:41:51.080Z,49.33
2019-04-21T02:44:08.179Z,49.87
2019-04-21T02:46:42.465Z,49.70
2019-04-21T02:49:17.164Z,49.97
2019-04-21T02:51:42.045Z,49.71
2019-04-21T02:56:47.425Z,50.74
2019-04-21T02:59:17.011Z,50.04
2019-04-21T03:01:50.472Z,52.67
2019-04-21T03:04:32.182Z,58.32
2019-04-21T03:09:31.081Z,52.01
2019-04-21T03:12:07.069Z,51.22
2019-04-21T03:17:03.414Z,51.22
2019-04-21T03:19:37.977Z,50.60
2019-04-21T03:22:06.792Z,50.57
2019-04-21T03:24:39.908Z,50.71
2019-04-21T03:35:00.422Z,50.74
2019-04-21T03:39:37.178Z,57.46
2019-04-21T03:47:10.336Z,53.15
2019-04-21T03:49:56.313Z,53.68
2019-04-21T03:52:11.786Z,53.60
2019-04-21T03:54:41.868Z,54.04
2019-04-21T03:57:19.942Z,54.17
2019-04-21T03:59:45.081Z,53.45
2019-04-21T04:02:18.638Z,53.69
2019-04-21T04:04:53.034Z,53.44
2019-04-21T04:07:32.976Z,52.57
2019-04-21T04:10:02.487Z,52.18
2019-04-21T04:12:28.546Z,52.17
2019-04-21T04:17:26.243Z,53.53
2019-04-21T04:20:26.200Z,53.03
2019-04-21T04:22:37.920Z,53.72
2019-04-21T04:27:49.324Z,53.50
2019-04-21T04:30:07.695Z,54.04
2019-04-21T04:32:41.873Z,53.99
2019-04-21T04:40:10.776Z,53.79
2019-04-21T04:42:42.754Z,53.12
2019-04-21T04:47:34.883Z,55.59
2019-04-21T04:50:00.800Z,58.85
2019-04-21T04:52:36.236Z,56.03
2019-04-21T04:55:17.142Z,54.48
2019-04-21T04:57:49.065Z,54.06
2019-04-21T05:02:46.342Z,54.35
2019-04-21T05:05:15.671Z,54.18
2019-04-21T05:07:46.615Z,54.24
2019-04-21T05:10:07.396Z,54.78
2019-04-21T05:12:38.528Z,54.60
2019-04-21T05:15:07.781Z,54.11
2019-04-21T05:17:50.869Z,53.51
2019-04-21T05:20:11.165Z,52.69
2019-04-21T05:22:35.267Z,53.45
2019-04-21T05:25:02.470Z,56.38
2019-04-21T05:27:38.553Z,53.76
2019-04-21T05:30:22.156Z,54.02
2019-04-21T05:33:14.965Z,53.62
2019-04-21T05:35:43.877Z,54.09
2019-04-21T05:38:11.606Z,53.83
2019-04-21T05:40:37.469Z,53.50
2019-04-21T05:43:15.365Z,53.53
2019-04-21T05:45:47.640Z,52.89
2019-04-21T05:48:23.808Z,53.02
2019-04-21T05:50:52.216Z,53.49
2019-04-21T05:53:25.352Z,53.11
2019-04-21T05:55:58.642Z,52.17
2019-04-21T05:58:25.922Z,52.52
2019-04-21T06:03:30.660Z,52.07
2019-04-21T06:06:10.359Z,50.78
2019-04-21T06:08:31.442Z,51.53
2019-04-21T06:11:02.352Z,52.08
2019-04-21T06:13:37.785Z,51.63
2019-04-21T06:16:03.215Z,51.71
2019-04-21T06:21:08.014Z,51.08
2019-04-21T06:23:32.816Z,51.08
2019-04-21T06:26:19.446Z,50.60
2019-04-21T06:31:21.567Z,49.38
2019-04-21T06:33:35.739Z,49.79
2019-04-21T06:36:36.324Z,49.57
2019-04-21T06:41:31.129Z,47.69
2019-04-21T06:44:12.814Z,47.89
2019-04-21T06:46:30.930Z,47.38
2019-04-21T06:48:59.958Z,47.48
2019-04-21T06:51:33.447Z,47.51
2019-04-21T06:56:39.652Z,44.53
2019-04-21T06:58:57.932Z,40.52
2019-04-21T07:01:34.285Z,38.21
2019-04-21T07:04:08.051Z,37.85
2019-04-21T07:06:36.907Z,39.48
2019-04-21T07:09:13.982Z,40.09
2019-04-21T07:11:26.964Z,39.64
2019-04-21T07:14:19.752Z,36.48
2019-04-21T07:16:33.414Z,37.96
2019-04-21T07:19:09.925Z,39.17
2019-04-21T07:21:34.244Z,40.00
2019-04-21T07:24:12.683Z,40.70
2019-04-21T07:26:29.721Z,41.17
2019-04-21T07:29:12.266Z,40.76
2019-04-21T07:31:43.149Z,41.73
2019-04-21T07:34:08.998Z,40.93
2019-04-21T07:36:45.063Z,40.78
2019-04-21T07:39:00.490Z,39.76
2019-04-21T07:41:27.725Z,38.89
2019-04-21T07:43:57.558Z,38.05
2019-04-21T07:46:27.371Z,37.67
2019-04-21T07:49:07.876Z,37.58
2019-04-21T07:51:56.454Z,37.18
2019-04-21T07:54:49.275Z,36.95
2019-04-21T07:56:41.903Z,35.60
2019-04-21T07:59:37.140Z,34.92
2019-04-21T08:02:00.818Z,35.50
2019-04-21T08:04:45.489Z,34.91
2019-04-21T08:06:57.150Z,34.26
2019-04-21T08:09:27.005Z,33.44
2019-04-21T08:11:54.285Z,33.40
2019-04-21T08:14:28.583Z,32.98
2019-04-21T08:19:33.807Z,33.34
2019-04-21T08:22:09.549Z,33.62
2019-04-21T08:24:28.541Z,33.33
2019-04-21T08:27:06.323Z,33.21
2019-04-21T08:29:33.361Z,32.63
2019-04-21T08:32:09.769Z,32.43
2019-04-21T08:34:35.919Z,32.12
2019-04-21T08:37:02.319Z,31.72
2019-04-21T08:39:39.514Z,31.74
2019-04-21T08:42:08.486Z,31.17
2019-04-21T08:44:44.974Z,31.06
2019-04-21T08:47:07.419Z,30.82
2019-04-21T08:49:35.077Z,30.91
2019-04-21T08:52:28.378Z,30.91
2019-04-21T08:54:38.994Z,29.82
2019-04-21T08:57:10.107Z,30.55
2019-04-21T08:59:37.546Z,30.75
2019-04-21T09:02:29.755Z,29.27
2019-04-21T09:04:52.696Z,29.95
2019-04-21T09:07:36.154Z,29.95
2019-04-21T09:09:55.844Z,29.26
2019-04-21T09:12:25.748Z,29.48
2019-04-21T09:14:55.306Z,28.24
2019-04-21T09:17:20.777Z,29.10
2019-04-21T09:19:58.055Z,29.64
2019-04-21T09:22:24.482Z,29.74
2019-04-21T09:25:04.377Z,29.64
2019-04-21T09:27:20.686Z,29.58
2019-04-21T09:29:44.836Z,28.43
2019-04-21T09:32:12.521Z,28.93
2019-04-21T09:34:43.461Z,28.08
2019-04-21T09:37:19.081Z,28.33
2019-04-21T09:39:43.831Z,28.76
2019-04-21T09:42:09.092Z,28.17
2019-04-21T09:44:42.117Z,28.11
2019-04-21T09:47:09.227Z,27.76
2019-04-21T09:49:40.075Z,27.69
2019-04-21T09:52:18.598Z,26.78
2019-04-21T09:54:48.254Z,27.39
2019-04-21T09:57:19.994Z,26.58
2019-04-21T09:59:42.365Z,26.50
2019-04-21T10:02:16.115Z,26.50
2019-04-21T10:04:40.444Z,25.97
2019-04-21T10:07:10.059Z,25.85
2019-04-21T10:09:39.697Z,27.04
2019-04-21T10:12:09.717Z,24.48
2019-04-21T10:14:38.846Z,25.21
2019-04-21T10:17:21.689Z,24.40
2019-04-21T10:19:50.717Z,24.72
2019-04-21T10:22:19.384Z,24.96
2019-04-21T10:24:48.836Z,25.67
2019-04-21T10:27:17.502Z,25.29
2019-04-21T10:29:47.213Z,24.32
2019-04-21T10:32:18.810Z,23.02
2019-04-21T10:34:47.529Z,23.74
2019-04-21T10:37:16.716Z,24.37
2019-04-21T10:39:45.404Z,24.81
2019-04-21T10:42:15.387Z,24.40
2019-04-21T10:44:45.143Z,24.81
2019-04-21T10:47:14.516Z,25.05
2019-04-21T10:49:44.610Z,23.78
2019-04-21T10:52:29.696Z,24.35
2019-04-21T10:55:20.864Z,23.43
2019-04-21T10:57:30.517Z,24.03
2019-04-21T10:59:59.863Z,24.26
2019-04-21T11:02:41.103Z,23.56
2019-04-21T11:05:09.808Z,23.03
2019-04-21T11:08:07.734Z,23.12
2019-04-21T11:10:22.393Z,23.21
2019-04-21T11:12:51.012Z,23.16
2019-04-21T11:15:19.652Z,22.80
2019-04-21T11:20:22.770Z,22.10
2019-04-21T11:22:51.545Z,22.40
2019-04-21T11:25:20.246Z,22.13
2019-04-21T11:27:49.131Z,23.07
2019-04-21T11:30:19.911Z,22.65
2019-04-21T11:32:49.782Z,21.83
2019-04-21T11:35:19.312Z,21.35
2019-04-21T11:37:50.214Z,22.66
2019-04-21T11:40:21.595Z,22.00
2019-04-21T11:42:49.479Z,21.51
2019-04-21T11:45:30.614Z,21.60
2019-04-21T11:48:13.161Z,21.60
2019-04-21T11:50:43.359Z,21.62
2019-04-21T11:53:12.718Z,21.39
2019-04-21T11:55:44.704Z,20.76
2019-04-21T11:58:11.947Z,21.38
2019-04-21T12:00:42.087Z,22.04
2019-04-21T12:03:13.294Z,20.46
2019-04-21T12:05:41.437Z,19.59
2019-04-21T12:08:20.766Z,20.04
2019-04-21T12:10:41.757Z,19.36
2019-04-21T12:13:10.444Z,19.42
2019-04-21T12:15:39.197Z,18.19
2019-04-21T12:18:08.091Z,18.49
2019-04-21T12:20:37.641Z,19.37
2019-04-21T12:23:06.762Z,18.38
2019-04-21T12:25:40.977Z,19.13
2019-04-21T12:28:10.095Z,19.48
2019-04-21T12:30:39.853Z,18.47
2019-04-21T12:33:16.243Z,17.86
2019-04-21T12:35:46.023Z,19.16
2019-04-21T12:38:14.624Z,18.84
2019-04-21T12:40:44.345Z,18.64
2019-04-21T12:43:12.967Z,18.59
2019-04-21T12:45:41.991Z,19.51
2019-04-21T12:48:10.571Z,19.00
2019-04-21T12:50:41.927Z,19.09
2019-04-21T12:53:13.839Z,19.22
2019-04-21T12:55:44.477Z,19.04
2019-04-21T12:58:11.195Z,20.10
2019-04-21T13:00:40.917Z,19.73
2019-04-21T13:03:09.904Z,19.05
2019-04-21T13:05:39.862Z,19.31
2019-04-21T13:08:09.235Z,19.80
2019-04-21T13:10:38.142Z,19.04
2019-04-21T13:13:08.025Z,18.99
2019-04-21T13:15:37.609Z,17.90
2019-04-21T13:18:06.289Z,18.91
2019-04-21T13:20:35.960Z,18.50
2019-04-21T13:23:05.879Z,18.83
2019-04-21T13:25:34.419Z,19.07
2019-04-21T13:28:02.969Z,19.45
2019-04-21T13:30:32.605Z,18.67
2019-04-21T13:33:01.291Z,18.61
2019-04-21T13:35:30.984Z,19.52
2019-04-21T13:38:00.535Z,19.40
2019-04-21T13:40:53.009Z,19.92
2019-04-21T13:43:08.707Z,19.92
2019-04-21T13:45:37.716Z,19.97
2019-04-21T13:48:06.597Z,19.65
2019-04-21T13:50:35.376Z,19.34
2019-04-21T13:53:04.943Z,21.22
2019-04-21T13:55:36.751Z,20.31
2019-04-21T13:58:04.313Z,20.04
2019-04-21T14:00:33.819Z,20.09
2019-04-21T14:03:02.925Z,20.14
2019-04-21T14:05:32.687Z,20.06
2019-04-21T14:08:03.029Z,19.36
2019-04-21T14:10:31.745Z,19.80
2019-04-21T14:13:00.564Z,19.81
2019-04-21T14:15:30.393Z,20.51
2019-04-21T14:17:58.964Z,19.32
2019-04-21T14:20:27.859Z,20.08
2019-04-21T14:23:10.076Z,19.60
2019-04-21T14:25:27.979Z,19.79
2019-04-21T14:27:57.848Z,20.57
2019-04-21T14:30:28.447Z,20.71
2019-04-21T14:32:58.128Z,20.23
2019-04-21T14:35:27.152Z,19.85
2019-04-21T14:37:56.580Z,19.72
2019-04-21T14:40:27.755Z,19.94
2019-04-21T14:42:56.213Z,20.82
2019-04-21T14:45:30.424Z,20.08
2019-04-21T14:48:00.978Z,19.38
2019-04-21T14:50:40.104Z,20.01
2019-04-21T14:53:17.867Z,20.22
2019-04-21T14:55:46.821Z,20.25
2019-04-21T14:58:17.194Z,21.40
2019-04-21T15:00:52.956Z,20.75
2019-04-21T15:03:21.728Z,20.69
2019-04-21T15:05:51.548Z,20.78
2019-04-21T15:08:21.488Z,20.26
2019-04-21T15:10:50.125Z,21.01
2019-04-21T15:13:19.690Z,22.17
2019-04-21T15:15:48.265Z,21.29
2019-04-21T15:18:17.019Z,21.01
2019-04-21T15:20:48.299Z,21.26
2019-04-21T15:23:15.944Z,21.57
2019-04-21T15:25:45.935Z,21.25
2019-04-21T15:28:15.841Z,21.18
2019-04-21T15:30:44.750Z,21.78
2019-04-21T15:33:13.383Z,20.56
2019-04-21T15:35:42.836Z,21.14
2019-04-21T15:38:11.839Z,21.72
2019-04-21T15:40:49.641Z,21.57
2019-04-21T15:43:10.736Z,21.09
2019-04-21T15:45:39.263Z,21.28
2019-04-21T15:48:07.871Z,22.18
2019-04-21T15:50:37.701Z,21.63
2019-04-21T15:53:08.175Z,21.69
2019-04-21T15:55:41.349Z,21.52
2019-04-21T15:58:28.350Z,21.53
2019-04-21T16:01:16.585Z,22.20
2019-04-21T16:03:45.227Z,21.27
2019-04-21T16:06:13.883Z,21.27
2019-04-21T16:08:46.585Z,22.46
2019-04-21T16:11:13.645Z,22.28
2019-04-21T16:13:43.601Z,22.45
2019-04-21T16:16:12.691Z,22.62
2019-04-21T16:18:42.516Z,21.75
2019-04-21T16:21:11.702Z,21.66
2019-04-21T16:23:40.529Z,22.82
2019-04-21T16:26:10.760Z,22.82
2019-04-21T16:28:39.617Z,22.90
2019-04-21T16:31:08.142Z,22.96
2019-04-21T16:33:36.868Z,22.57
2019-04-21T16:36:08.327Z,23.18
2019-04-21T16:38:35.913Z,22.68
2019-04-21T16:41:08.426Z,22.94
2019-04-21T16:43:35.373Z,23.07
2019-04-21T16:46:04.647Z,23.83
2019-04-21T16:48:33.808Z,23.82
2019-04-21T16:51:03.658Z,23.81
2019-04-21T16:53:39.837Z,23.76
2019-04-21T16:56:19.108Z,23.75
2019-04-21T16:58:56.603Z,24.14
2019-04-21T17:01:31.592Z,24.58
2019-04-21T17:04:00.361Z,24.50
2019-04-21T17:06:29.210Z,24.26
2019-04-21T17:08:59.019Z,25.29
2019-04-21T17:11:31.577Z,25.81
2019-04-21T17:13:58.263Z,25.70
2019-04-21T17:16:52.863Z,25.62
2019-04-21T17:19:05.322Z,25.99
2019-04-21T17:21:28.106Z,26.43
2019-04-21T17:23:56.844Z,26.60
2019-04-21T17:26:26.789Z,26.07
2019-04-21T17:28:56.704Z,25.84
2019-04-21T17:31:26.549Z,27.21
2019-04-21T17:34:02.094Z,28.29
2019-04-21T17:36:26.930Z,27.49
2019-04-21T17:38:55.855Z,27.30
2019-04-21T17:41:33.409Z,26.36
2019-04-21T17:43:56.027Z,25.90
2019-04-21T17:46:34.537Z,26.05
2019-04-21T17:48:55.076Z,26.36
2019-04-21T17:51:25.705Z,26.60
2019-04-21T17:54:00.327Z,26.22
2019-04-21T17:56:53.705Z,26.62
2019-04-21T17:59:17.695Z,26.89
2019-04-21T18:01:50.154Z,27.84
2019-04-21T18:04:21.178Z,27.60
2019-04-21T18:07:02.388Z,27.87
2019-04-21T18:09:44.155Z,27.77
2019-04-21T18:12:07.547Z,29.42
2019-04-21T18:14:20.686Z,29.81
2019-04-21T18:16:51.641Z,30.76
2019-04-21T18:19:24.747Z,30.76
2019-04-21T18:21:56.867Z,30.74
2019-04-21T18:24:35.396Z,31.68
2019-04-21T18:26:57.365Z,32.38
2019-04-21T18:29:23.962Z,32.12
2019-04-21T18:31:54.197Z,32.17
2019-04-21T18:34:43.847Z,32.66
2019-04-21T18:37:14.720Z,34.12
2019-04-21T18:39:59.970Z,33.50
2019-04-21T18:42:39.843Z,33.14
2019-04-21T18:45:34.526Z,33.25
2019-04-21T18:47:47.075Z,34.03
2019-04-21T18:50:02.056Z,34.24
2019-04-21T18:52:48.304Z,34.07
2019-04-21T18:55:18.961Z,35.66
2019-04-21T18:57:42.343Z,34.98
2019-04-21T19:00:15.367Z,35.40
2019-04-21T19:02:45.314Z,35.05
2019-04-21T19:05:13.072Z,33.71
2019-04-21T19:08:00.565Z,35.38
2019-04-21T19:10:26.706Z,35.21
2019-04-21T19:15:20.382Z,36.41
2019-04-21T19:18:27.692Z,35.56
2019-04-21T19:20:29.490Z,35.71
2019-04-21T19:23:00.306Z,36.08
2019-04-21T19:25:25.384Z,36.34
2019-04-21T19:27:59.064Z,37.60
2019-04-21T19:30:36.822Z,37.35
2019-04-21T19:33:01.071Z,37.13
2019-04-21T19:35:14.836Z,36.92
2019-04-21T19:37:52.056Z,37.08
2019-04-21T19:40:31.019Z,37.75
2019-04-21T19:42:55.749Z,37.55
2019-04-21T19:45:32.199Z,38.11
2019-04-21T19:48:06.767Z,39.56
2019-04-21T19:50:39.644Z,39.37
2019-04-21T19:52:55.094Z,39.71
2019-04-21T19:55:18.129Z,39.96
2019-04-21T19:57:47.079Z,39.84
2019-04-21T20:00:17.517Z,39.83
2019-04-21T20:02:46.432Z,40.35
2019-04-21T20:05:24.293Z,40.92
2019-04-21T20:08:04.127Z,40.08
2019-04-21T20:10:33.428Z,39.43
2019-04-21T20:13:08.623Z,39.72
2019-04-21T20:15:41.967Z,39.10
2019-04-21T20:18:02.624Z,39.86
2019-04-21T20:20:17.577Z,40.06
2019-04-21T20:22:50.323Z,39.34
2019-04-21T20:25:20.886Z,40.18
2019-04-21T20:27:55.347Z,40.40
2019-04-21T20:30:37.745Z,40.84
2019-04-21T20:33:20.255Z,40.56
2019-04-21T20:35:45.101Z,40.29
2019-04-21T20:38:02.007Z,40.15
2019-04-21T20:40:33.212Z,41.13
2019-04-21T20:43:12.451Z,40.94
2019-04-21T20:45:41.729Z,41.54
2019-04-21T20:47:54.610Z,40.91
2019-04-21T20:50:33.893Z,40.53
2019-04-21T20:53:12.298Z,41.27
2019-04-21T20:55:35.453Z,39.69
2019-04-21T20:58:04.264Z,39.27
2019-04-21T21:00:54.653Z,40.17
2019-04-21T21:03:11.911Z,40.22
2019-04-21T21:05:39.992Z,40.01
2019-04-21T21:08:17.957Z,39.78
2019-04-21T21:10:38.621Z,40.50
2019-04-21T21:13:21.126Z,40.49
2019-04-21T21:15:51.409Z,41.13
2019-04-21T21:18:35.028Z,41.92
2019-04-21T21:20:44.789Z,40.79
2019-04-21T21:23:11.521Z,41.70
2019-04-21T21:26:01.924Z,41.71
2019-04-21T21:28:09.238Z,43.26
2019-04-21T21:30:37.539Z,42.58
2019-04-21T21:33:18.519Z,42.72
2019-04-21T21:35:43.772Z,42.06
2019-04-21T21:38:19.937Z,41.83
2019-04-21T21:40:45.555Z,42.62
2019-04-21T21:43:01.558Z,42.86
2019-04-21T21:45:39.398Z,42.36
2019-04-21T21:48:20.853Z,42.47
2019-04-21T21:50:43.093Z,43.18
2019-04-21T21:53:08.644Z,43.40
2019-04-21T21:55:34.104Z,43.92
2019-04-21T21:58:03.925Z,43.52
2019-04-21T22:00:36.983Z,43.59
2019-04-21T22:03:16.320Z,43.58
2019-04-21T22:05:46.584Z,43.13
2019-04-21T22:08:04.826Z,43.61
2019-04-21T22:10:34.866Z,43.84
2019-04-21T22:13:08.867Z,44.04
2019-04-21T22:15:35.529Z,44.82
2019-04-21T22:18:24.616Z,44.85
2019-04-21T22:20:55.197Z,44.66
2019-04-21T22:23:12.853Z,44.12
2019-04-21T22:25:37.974Z,45.19
2019-04-21T22:28:05.682Z,44.56
2019-04-21T22:30:40.362Z,44.67
2019-04-21T22:33:10.113Z,45.07
2019-04-21T22:35:42.587Z,45.05
2019-04-21T22:38:20.860Z,44.97
2019-04-21T22:40:51.446Z,44.76
2019-04-21T22:43:19.490Z,46.36
2019-04-21T22:45:37.588Z,47.19
2019-04-21T22:48:13.537Z,47.61
2019-04-21T22:50:40.581Z,47.01
2019-04-21T22:53:10.627Z,46.63
2019-04-21T22:55:40.853Z,46.72
2019-04-21T22:58:09.737Z,46.79
2019-04-21T23:00:44.651Z,46.56
2019-04-21T23:03:13.831Z,45.77
2019-04-21T23:05:41.694Z,45.96
2019-04-21T23:08:10.939Z,46.55
2019-04-21T23:10:43.806Z,46.79
2019-04-21T23:13:17.841Z,47.90
2019-04-21T23:15:46.093Z,48.50
2019-04-21T23:18:28.811Z,47.92
2019-04-21T23:21:00.309Z,47.66
2019-04-21T23:23:37.305Z,48.12
2019-04-21T23:25:56.023Z,47.88
2019-04-21T23:28:34.572Z,48.26
2019-04-21T23:31:00.875Z,49.54
2019-04-21T23:33:15.825Z,48.50
2019-04-21T23:35:46.054Z,50.39
2019-04-21T23:38:14.760Z,49.77
2019-04-21T23:40:49.986Z,49.74
2019-04-21T23:43:19.437Z,49.81
2019-04-21T23:45:46.479Z,52.10
2019-04-21T23:48:28.606Z,51.39
2019-04-21T23:50:51.338Z,51.22
2019-04-21T23:53:15.468Z,51.66
2019-04-21T23:55:45.218Z,51.66
2019-04-21T23:58:21.594Z,50.35
